sensor_id;sensor_type;location;lat;lon;timestamp;P1;durP1;ratioP1;P2;durP2;ratioP2
15799;SDS011;8002;51.196;7.010;2024-01-30T00:02:16;8.90;;;7.63;;
15799;SDS011;8002;51.196;7.010;2024-01-30T00:04:42;11.67;;;7.47;;
15799;SDS011;8002;51.196;7.010;2024-01-30T00:07:09;9.13;;;6.90;;
15799;SDS011;8002;51.196;7.010;2024-01-30T00:09:37;8.17;;;7.27;;
15799;SDS011;8002;51.196;7.010;2024-01-30T00:12:04;8.57;;;7.67;;
15799;SDS011;8002;51.196;7.010;2024-01-30T00:14:31;10.20;;;7.20;;
15799;SDS011;8002;51.196;7.010;2024-01-30T00:16:57;8.60;;;7.50;;
15799;SDS011;8002;51.196;7.010;2024-01-30T00:19:24;7.30;;;6.57;;
15799;SDS011;8002;51.196;7.010;2024-01-30T00:21:50;9.83;;;6.73;;
15799;SDS011;8002;51.196;7.010;2024-01-30T00:24:17;8.87;;;7.50;;
15799;SDS011;8002;51.196;7.010;2024-01-30T00:26:44;11.23;;;8.17;;
15799;SDS011;8002;51.196;7.010;2024-01-30T00:29:11;9.60;;;8.33;;
15799;SDS011;8002;51.196;7.010;2024-01-30T00:31:44;10.10;;;8.03;;
15799;SDS011;8002;51.196;7.010;2024-01-30T00:34:10;9.23;;;7.27;;
15799;SDS011;8002;51.196;7.010;2024-01-30T00:36:36;8.10;;;7.30;;
15799;SDS011;8002;51.196;7.010;2024-01-30T00:39:03;10.90;;;8.03;;
15799;SDS011;8002;51.196;7.010;2024-01-30T00:41:31;9.27;;;8.27;;
15799;SDS011;8002;51.196;7.010;2024-01-30T00:43:59;8.93;;;7.63;;
15799;SDS011;8002;51.196;7.010;2024-01-30T00:46:25;10.07;;;8.00;;
15799;SDS011;8002;51.196;7.010;2024-01-30T00:48:51;10.03;;;7.70;;
15799;SDS011;8002;51.196;7.010;2024-01-30T00:51:18;10.57;;;8.33;;
15799;SDS011;8002;51.196;7.010;2024-01-30T00:53:44;11.23;;;8.07;;
15799;SDS011;8002;51.196;7.010;2024-01-30T00:56:11;9.07;;;8.17;;
15799;SDS011;8002;51.196;7.010;2024-01-30T00:58:37;8.23;;;7.43;;
15799;SDS011;8002;51.196;7.010;2024-01-30T01:01:05;9.10;;;7.83;;
15799;SDS011;8002;51.196;7.010;2024-01-30T01:03:33;9.30;;;7.90;;
15799;SDS011;8002;51.196;7.010;2024-01-30T01:05:59;9.27;;;7.80;;
15799;SDS011;8002;51.196;7.010;2024-01-30T01:08:26;9.90;;;7.00;;
15799;SDS011;8002;51.196;7.010;2024-01-30T01:10:52;9.20;;;7.93;;
15799;SDS011;8002;51.196;7.010;2024-01-30T01:13:19;10.07;;;8.10;;
15799;SDS011;8002;51.196;7.010;2024-01-30T01:15:45;12.23;;;8.00;;
15799;SDS011;8002;51.196;7.010;2024-01-30T01:18:13;9.90;;;7.23;;
15799;SDS011;8002;51.196;7.010;2024-01-30T01:20:39;10.23;;;7.53;;
15799;SDS011;8002;51.196;7.010;2024-01-30T01:23:06;9.43;;;8.43;;
15799;SDS011;8002;51.196;7.010;2024-01-30T01:25:32;10.07;;;7.43;;
15799;SDS011;8002;51.196;7.010;2024-01-30T01:27:58;8.43;;;7.57;;
15799;SDS011;8002;51.196;7.010;2024-01-30T01:30:26;8.73;;;7.60;;
15799;SDS011;8002;51.196;7.010;2024-01-30T01:32:54;12.27;;;7.90;;
15799;SDS011;8002;51.196;7.010;2024-01-30T01:35:23;9.93;;;8.10;;
15799;SDS011;8002;51.196;7.010;2024-01-30T01:37:50;8.80;;;7.27;;
15799;SDS011;8002;51.196;7.010;2024-01-30T01:40:20;9.20;;;8.13;;
15799;SDS011;8002;51.196;7.010;2024-01-30T01:42:46;8.90;;;7.37;;
15799;SDS011;8002;51.196;7.010;2024-01-30T01:45:13;10.30;;;7.87;;
15799;SDS011;8002;51.196;7.010;2024-01-30T01:47:39;8.53;;;7.43;;
15799;SDS011;8002;51.196;7.010;2024-01-30T01:50:06;11.13;;;7.97;;
15799;SDS011;8002;51.196;7.010;2024-01-30T01:52:34;10.13;;;7.33;;
15799;SDS011;8002;51.196;7.010;2024-01-30T01:55:00;9.73;;;7.67;;
15799;SDS011;8002;51.196;7.010;2024-01-30T01:57:26;10.10;;;8.43;;
15799;SDS011;8002;51.196;7.010;2024-01-30T01:59:53;8.07;;;7.20;;
15799;SDS011;8002;51.196;7.010;2024-01-30T02:02:19;11.20;;;8.33;;
15799;SDS011;8002;51.196;7.010;2024-01-30T02:04:46;9.70;;;7.97;;
15799;SDS011;8002;51.196;7.010;2024-01-30T02:07:13;8.07;;;6.97;;
15799;SDS011;8002;51.196;7.010;2024-01-30T02:09:40;8.97;;;7.47;;
15799;SDS011;8002;51.196;7.010;2024-01-30T02:12:07;9.87;;;7.93;;
15799;SDS011;8002;51.196;7.010;2024-01-30T02:14:33;9.60;;;7.30;;
15799;SDS011;8002;51.196;7.010;2024-01-30T02:17:09;8.73;;;7.23;;
15799;SDS011;8002;51.196;7.010;2024-01-30T02:19:36;10.00;;;7.37;;
15799;SDS011;8002;51.196;7.010;2024-01-30T02:22:04;10.67;;;7.43;;
15799;SDS011;8002;51.196;7.010;2024-01-30T02:24:30;9.70;;;7.80;;
15799;SDS011;8002;51.196;7.010;2024-01-30T02:26:57;8.30;;;7.50;;
15799;SDS011;8002;51.196;7.010;2024-01-30T02:29:23;9.17;;;8.17;;
15799;SDS011;8002;51.196;7.010;2024-01-30T02:31:49;12.83;;;8.23;;
15799;SDS011;8002;51.196;7.010;2024-01-30T02:34:16;10.67;;;8.23;;
15799;SDS011;8002;51.196;7.010;2024-01-30T02:36:42;9.60;;;8.27;;
15799;SDS011;8002;51.196;7.010;2024-01-30T02:39:10;11.70;;;7.57;;
15799;SDS011;8002;51.196;7.010;2024-01-30T02:41:36;9.17;;;6.97;;
15799;SDS011;8002;51.196;7.010;2024-01-30T02:44:03;11.00;;;7.23;;
15799;SDS011;8002;51.196;7.010;2024-01-30T02:46:29;9.13;;;7.70;;
15799;SDS011;8002;51.196;7.010;2024-01-30T02:48:56;12.70;;;7.33;;
15799;SDS011;8002;51.196;7.010;2024-01-30T02:51:22;8.73;;;6.87;;
15799;SDS011;8002;51.196;7.010;2024-01-30T02:53:49;9.47;;;7.30;;
15799;SDS011;8002;51.196;7.010;2024-01-30T02:56:17;8.17;;;7.37;;
15799;SDS011;8002;51.196;7.010;2024-01-30T02:58:43;8.10;;;7.20;;
15799;SDS011;8002;51.196;7.010;2024-01-30T03:01:09;7.90;;;6.93;;
15799;SDS011;8002;51.196;7.010;2024-01-30T03:03:36;7.70;;;6.90;;
15799;SDS011;8002;51.196;7.010;2024-01-30T03:06:02;9.33;;;7.30;;
15799;SDS011;8002;51.196;7.010;2024-01-30T03:08:29;9.67;;;6.60;;
15799;SDS011;8002;51.196;7.010;2024-01-30T03:10:55;9.33;;;6.70;;
15799;SDS011;8002;51.196;7.010;2024-01-30T03:13:22;6.80;;;6.13;;
15799;SDS011;8002;51.196;7.010;2024-01-30T03:15:50;7.90;;;6.90;;
15799;SDS011;8002;51.196;7.010;2024-01-30T03:18:16;8.73;;;7.23;;
15799;SDS011;8002;51.196;7.010;2024-01-30T03:20:43;9.27;;;6.77;;
15799;SDS011;8002;51.196;7.010;2024-01-30T03:23:09;7.43;;;6.70;;
15799;SDS011;8002;51.196;7.010;2024-01-30T03:25:35;9.43;;;6.77;;
15799;SDS011;8002;51.196;7.010;2024-01-30T03:28:02;7.87;;;7.07;;
15799;SDS011;8002;51.196;7.010;2024-01-30T03:30:29;8.77;;;7.50;;
15799;SDS011;8002;51.196;7.010;2024-01-30T03:32:56;9.07;;;6.63;;
15799;SDS011;8002;51.196;7.010;2024-01-30T03:35:22;9.87;;;6.63;;
15799;SDS011;8002;51.196;7.010;2024-01-30T03:37:48;12.20;;;7.40;;
15799;SDS011;8002;51.196;7.010;2024-01-30T03:40:15;9.33;;;7.07;;
15799;SDS011;8002;51.196;7.010;2024-01-30T03:42:41;9.60;;;7.60;;
15799;SDS011;8002;51.196;7.010;2024-01-30T03:45:08;7.20;;;6.57;;
15799;SDS011;8002;51.196;7.010;2024-01-30T03:47:36;11.37;;;7.30;;
15799;SDS011;8002;51.196;7.010;2024-01-30T03:50:02;8.70;;;7.20;;
15799;SDS011;8002;51.196;7.010;2024-01-30T03:52:29;8.17;;;6.30;;
15799;SDS011;8002;51.196;7.010;2024-01-30T03:54:56;9.70;;;7.60;;
15799;SDS011;8002;51.196;7.010;2024-01-30T03:57:22;7.43;;;6.60;;
15799;SDS011;8002;51.196;7.010;2024-01-30T03:59:49;10.53;;;7.33;;
15799;SDS011;8002;51.196;7.010;2024-01-30T04:02:15;8.30;;;6.60;;
15799;SDS011;8002;51.196;7.010;2024-01-30T04:04:44;9.20;;;6.37;;
15799;SDS011;8002;51.196;7.010;2024-01-30T04:07:10;8.20;;;7.10;;
15799;SDS011;8002;51.196;7.010;2024-01-30T04:09:38;8.77;;;6.90;;
15799;SDS011;8002;51.196;7.010;2024-01-30T04:12:04;6.83;;;6.13;;
15799;SDS011;8002;51.196;7.010;2024-01-30T04:14:31;10.40;;;7.00;;
15799;SDS011;8002;51.196;7.010;2024-01-30T04:16:57;8.57;;;6.47;;
15799;SDS011;8002;51.196;7.010;2024-01-30T04:19:23;9.10;;;6.30;;
15799;SDS011;8002;51.196;7.010;2024-01-30T04:21:51;8.60;;;6.80;;
15799;SDS011;8002;51.196;7.010;2024-01-30T04:24:17;7.60;;;6.60;;
15799;SDS011;8002;51.196;7.010;2024-01-30T04:26:44;7.13;;;6.43;;
15799;SDS011;8002;51.196;7.010;2024-01-30T04:29:10;6.77;;;5.83;;
15799;SDS011;8002;51.196;7.010;2024-01-30T04:31:36;6.40;;;5.70;;
15799;SDS011;8002;51.196;7.010;2024-01-30T04:34:03;8.80;;;5.90;;
15799;SDS011;8002;51.196;7.010;2024-01-30T04:36:29;6.87;;;6.17;;
15799;SDS011;8002;51.196;7.010;2024-01-30T04:38:57;8.80;;;6.20;;
15799;SDS011;8002;51.196;7.010;2024-01-30T04:41:23;7.27;;;6.10;;
15799;SDS011;8002;51.196;7.010;2024-01-30T04:43:51;7.27;;;6.33;;
15799;SDS011;8002;51.196;7.010;2024-01-30T04:46:17;7.83;;;6.40;;
15799;SDS011;8002;51.196;7.010;2024-01-30T04:48:43;7.77;;;6.50;;
15799;SDS011;8002;51.196;7.010;2024-01-30T04:51:10;6.97;;;5.77;;
15799;SDS011;8002;51.196;7.010;2024-01-30T04:53:36;8.07;;;6.40;;
15799;SDS011;8002;51.196;7.010;2024-01-30T04:56:06;6.80;;;6.10;;
15799;SDS011;8002;51.196;7.010;2024-01-30T04:58:32;8.00;;;6.50;;
15799;SDS011;8002;51.196;7.010;2024-01-30T05:00:59;6.70;;;5.93;;
15799;SDS011;8002;51.196;7.010;2024-01-30T05:03:25;7.43;;;6.00;;
15799;SDS011;8002;51.196;7.010;2024-01-30T05:05:51;8.37;;;5.90;;
15799;SDS011;8002;51.196;7.010;2024-01-30T05:08:17;8.80;;;6.70;;
15799;SDS011;8002;51.196;7.010;2024-01-30T05:10:44;7.00;;;6.27;;
15799;SDS011;8002;51.196;7.010;2024-01-30T05:13:12;6.27;;;5.63;;
15799;SDS011;8002;51.196;7.010;2024-01-30T05:15:39;7.03;;;6.23;;
15799;SDS011;8002;51.196;7.010;2024-01-30T05:18:05;5.97;;;5.30;;
15799;SDS011;8002;51.196;7.010;2024-01-30T05:20:31;6.90;;;6.20;;
15799;SDS011;8002;51.196;7.010;2024-01-30T05:22:58;7.87;;;6.20;;
15799;SDS011;8002;51.196;7.010;2024-01-30T05:25:24;9.90;;;6.77;;
15799;SDS011;8002;51.196;7.010;2024-01-30T05:27:50;7.60;;;6.00;;
15799;SDS011;8002;51.196;7.010;2024-01-30T05:30:18;7.03;;;5.83;;
15799;SDS011;8002;51.196;7.010;2024-01-30T05:32:44;9.70;;;6.40;;
15799;SDS011;8002;51.196;7.010;2024-01-30T05:35:11;7.50;;;5.93;;
15799;SDS011;8002;51.196;7.010;2024-01-30T05:37:37;13.77;;;6.40;;
15799;SDS011;8002;51.196;7.010;2024-01-30T05:40:04;7.43;;;6.43;;
15799;SDS011;8002;51.196;7.010;2024-01-30T05:42:30;6.73;;;5.20;;
15799;SDS011;8002;51.196;7.010;2024-01-30T05:44:57;7.07;;;5.17;;
15799;SDS011;8002;51.196;7.010;2024-01-30T05:47:24;8.47;;;6.17;;
15799;SDS011;8002;51.196;7.010;2024-01-30T05:49:51;9.77;;;5.93;;
15799;SDS011;8002;51.196;7.010;2024-01-30T05:52:17;6.87;;;5.20;;
15799;SDS011;8002;51.196;7.010;2024-01-30T05:54:46;6.87;;;5.73;;
15799;SDS011;8002;51.196;7.010;2024-01-30T05:57:12;8.13;;;5.77;;
15799;SDS011;8002;51.196;7.010;2024-01-30T05:59:38;10.60;;;6.00;;
15799;SDS011;8002;51.196;7.010;2024-01-30T06:02:05;7.37;;;5.83;;
15799;SDS011;8002;51.196;7.010;2024-01-30T06:04:32;7.87;;;5.80;;
15799;SDS011;8002;51.196;7.010;2024-01-30T06:06:59;6.90;;;6.20;;
15799;SDS011;8002;51.196;7.010;2024-01-30T06:09:27;8.67;;;5.67;;
15799;SDS011;8002;51.196;7.010;2024-01-30T06:11:53;8.13;;;6.57;;
15799;SDS011;8002;51.196;7.010;2024-01-30T06:14:19;6.07;;;5.37;;
15799;SDS011;8002;51.196;7.010;2024-01-30T06:16:46;8.23;;;5.97;;
15799;SDS011;8002;51.196;7.010;2024-01-30T06:19:12;6.30;;;5.70;;
15799;SDS011;8002;51.196;7.010;2024-01-30T06:21:40;8.20;;;6.00;;
15799;SDS011;8002;51.196;7.010;2024-01-30T06:24:06;6.70;;;5.30;;
15799;SDS011;8002;51.196;7.010;2024-01-30T06:26:33;6.40;;;5.80;;
15799;SDS011;8002;51.196;7.010;2024-01-30T06:29:00;7.40;;;6.17;;
15799;SDS011;8002;51.196;7.010;2024-01-30T06:31:26;6.20;;;5.60;;
15799;SDS011;8002;51.196;7.010;2024-01-30T06:33:52;7.20;;;6.17;;
15799;SDS011;8002;51.196;7.010;2024-01-30T06:36:19;7.43;;;5.80;;
15799;SDS011;8002;51.196;7.010;2024-01-30T06:38:46;8.07;;;6.17;;
15799;SDS011;8002;51.196;7.010;2024-01-30T06:41:13;7.33;;;6.63;;
15799;SDS011;8002;51.196;7.010;2024-01-30T06:43:39;6.90;;;6.20;;
15799;SDS011;8002;51.196;7.010;2024-01-30T06:46:05;8.30;;;6.63;;
15799;SDS011;8002;51.196;7.010;2024-01-30T06:48:32;6.80;;;5.50;;
15799;SDS011;8002;51.196;7.010;2024-01-30T06:50:58;7.80;;;5.83;;
15799;SDS011;8002;51.196;7.010;2024-01-30T06:53:24;9.40;;;6.47;;
15799;SDS011;8002;51.196;7.010;2024-01-30T06:55:53;8.17;;;6.17;;
15799;SDS011;8002;51.196;7.010;2024-01-30T06:58:19;8.53;;;6.23;;
15799;SDS011;8002;51.196;7.010;2024-01-30T07:00:46;8.40;;;6.30;;
15799;SDS011;8002;51.196;7.010;2024-01-30T07:03:12;7.40;;;6.00;;
15799;SDS011;8002;51.196;7.010;2024-01-30T07:05:38;7.53;;;6.33;;
15799;SDS011;8002;51.196;7.010;2024-01-30T07:08:05;6.77;;;5.60;;
15799;SDS011;8002;51.196;7.010;2024-01-30T07:10:32;6.97;;;5.83;;
15799;SDS011;8002;51.196;7.010;2024-01-30T07:13:01;7.03;;;6.03;;
15799;SDS011;8002;51.196;7.010;2024-01-30T07:15:29;8.30;;;6.90;;
15799;SDS011;8002;51.196;7.010;2024-01-30T07:17:55;9.47;;;5.93;;
15799;SDS011;8002;51.196;7.010;2024-01-30T07:20:21;6.33;;;5.73;;
15799;SDS011;8002;51.196;7.010;2024-01-30T07:22:48;7.20;;;6.10;;
15799;SDS011;8002;51.196;7.010;2024-01-30T07:25:15;6.47;;;5.83;;
15799;SDS011;8002;51.196;7.010;2024-01-30T07:27:42;9.30;;;6.77;;
15799;SDS011;8002;51.196;7.010;2024-01-30T07:30:09;6.57;;;5.90;;
15799;SDS011;8002;51.196;7.010;2024-01-30T07:32:36;6.73;;;5.80;;
15799;SDS011;8002;51.196;7.010;2024-01-30T07:35:02;7.00;;;5.77;;
15799;SDS011;8002;51.196;7.010;2024-01-30T07:37:29;7.57;;;6.00;;
15799;SDS011;8002;51.196;7.010;2024-01-30T07:39:55;9.27;;;6.90;;
15799;SDS011;8002;51.196;7.010;2024-01-30T07:42:22;8.07;;;6.47;;
15799;SDS011;8002;51.196;7.010;2024-01-30T07:44:48;7.77;;;6.80;;
15799;SDS011;8002;51.196;7.010;2024-01-30T07:47:16;7.97;;;6.60;;
15799;SDS011;8002;51.196;7.010;2024-01-30T07:49:42;10.17;;;6.80;;
15799;SDS011;8002;51.196;7.010;2024-01-30T07:52:08;6.47;;;5.87;;
15799;SDS011;8002;51.196;7.010;2024-01-30T08:03:30;6.50;;;5.53;;
15799;SDS011;8002;51.196;7.010;2024-01-30T08:05:56;7.67;;;5.73;;
15799;SDS011;8002;51.196;7.010;2024-01-30T08:08:23;7.80;;;6.17;;
15799;SDS011;8002;51.196;7.010;2024-01-30T08:10:50;6.93;;;6.13;;
15799;SDS011;8002;51.196;7.010;2024-01-30T08:13:17;6.40;;;5.57;;
15799;SDS011;8002;51.196;7.010;2024-01-30T08:15:43;6.17;;;5.57;;
15799;SDS011;8002;51.196;7.010;2024-01-30T08:18:09;6.53;;;5.53;;
15799;SDS011;8002;51.196;7.010;2024-01-30T08:20:37;8.67;;;6.10;;
15799;SDS011;8002;51.196;7.010;2024-01-30T08:23:03;7.80;;;6.03;;
15799;SDS011;8002;51.196;7.010;2024-01-30T08:25:30;7.50;;;6.07;;
15799;SDS011;8002;51.196;7.010;2024-01-30T08:27:56;8.23;;;6.53;;
15799;SDS011;8002;51.196;7.010;2024-01-30T08:30:23;8.13;;;6.60;;
15799;SDS011;8002;51.196;7.010;2024-01-30T08:32:49;6.67;;;5.93;;
15799;SDS011;8002;51.196;7.010;2024-01-30T08:35:15;6.50;;;5.90;;
15799;SDS011;8002;51.196;7.010;2024-01-30T08:37:43;7.23;;;5.60;;
15799;SDS011;8002;51.196;7.010;2024-01-30T08:40:10;8.20;;;6.30;;
15799;SDS011;8002;51.196;7.010;2024-01-30T08:42:36;7.07;;;5.80;;
15799;SDS011;8002;51.196;7.010;2024-01-30T08:45:03;8.53;;;6.30;;
15799;SDS011;8002;51.196;7.010;2024-01-30T08:47:29;10.03;;;6.53;;
15799;SDS011;8002;51.196;7.010;2024-01-30T08:49:56;9.27;;;6.23;;
15799;SDS011;8002;51.196;7.010;2024-01-30T08:52:22;6.73;;;6.00;;
15799;SDS011;8002;51.196;7.010;2024-01-30T08:54:50;10.10;;;7.20;;
15799;SDS011;8002;51.196;7.010;2024-01-30T08:57:16;8.40;;;6.77;;
15799;SDS011;8002;51.196;7.010;2024-01-30T08:59:42;8.47;;;6.27;;
15799;SDS011;8002;51.196;7.010;2024-01-30T09:02:10;8.87;;;6.67;;
15799;SDS011;8002;51.196;7.010;2024-01-30T09:04:38;8.27;;;5.67;;
15799;SDS011;8002;51.196;7.010;2024-01-30T09:07:04;6.17;;;5.57;;
15799;SDS011;8002;51.196;7.010;2024-01-30T09:09:33;6.30;;;5.70;;
15799;SDS011;8002;51.196;7.010;2024-01-30T09:12:01;8.73;;;6.00;;
15799;SDS011;8002;51.196;7.010;2024-01-30T09:14:32;6.47;;;5.37;;
15799;SDS011;8002;51.196;7.010;2024-01-30T09:16:58;6.00;;;5.40;;
15799;SDS011;8002;51.196;7.010;2024-01-30T09:19:24;5.97;;;5.40;;
15799;SDS011;8002;51.196;7.010;2024-01-30T09:21:51;6.50;;;5.53;;
15799;SDS011;8002;51.196;7.010;2024-01-30T09:24:18;6.83;;;6.23;;
15799;SDS011;8002;51.196;7.010;2024-01-30T09:26:44;8.53;;;5.70;;
15799;SDS011;8002;51.196;7.010;2024-01-30T09:29:12;6.87;;;5.63;;
15799;SDS011;8002;51.196;7.010;2024-01-30T09:31:38;6.20;;;5.53;;
15799;SDS011;8002;51.196;7.010;2024-01-30T09:34:04;7.70;;;5.80;;
15799;SDS011;8002;51.196;7.010;2024-01-30T09:36:31;6.10;;;5.50;;
15799;SDS011;8002;51.196;7.010;2024-01-30T09:38:57;6.97;;;5.93;;
15799;SDS011;8002;51.196;7.010;2024-01-30T09:41:24;6.57;;;5.60;;
15799;SDS011;8002;51.196;7.010;2024-01-30T09:43:50;7.67;;;5.40;;
15799;SDS011;8002;51.196;7.010;2024-01-30T09:46:18;7.53;;;6.10;;
15799;SDS011;8002;51.196;7.010;2024-01-30T09:48:46;5.77;;;5.20;;
15799;SDS011;8002;51.196;7.010;2024-01-30T09:51:11;5.90;;;5.27;;
15799;SDS011;8002;51.196;7.010;2024-01-30T09:53:39;6.23;;;5.43;;
15799;SDS011;8002;51.196;7.010;2024-01-30T09:56:06;5.93;;;5.33;;
15799;SDS011;8002;51.196;7.010;2024-01-30T09:58:32;5.80;;;5.30;;
15799;SDS011;8002;51.196;7.010;2024-01-30T10:00:59;6.77;;;5.70;;
15799;SDS011;8002;51.196;7.010;2024-01-30T10:03:27;7.17;;;5.53;;
15799;SDS011;8002;51.196;7.010;2024-01-30T10:05:53;6.23;;;4.97;;
15799;SDS011;8002;51.196;7.010;2024-01-30T10:08:21;8.40;;;5.97;;
15799;SDS011;8002;51.196;7.010;2024-01-30T10:10:47;7.43;;;5.27;;
15799;SDS011;8002;51.196;7.010;2024-01-30T10:13:13;6.83;;;5.37;;
15799;SDS011;8002;51.196;7.010;2024-01-30T10:15:41;5.50;;;5.00;;
15799;SDS011;8002;51.196;7.010;2024-01-30T10:18:08;7.03;;;6.17;;
15799;SDS011;8002;51.196;7.010;2024-01-30T10:20:36;7.90;;;5.20;;
15799;SDS011;8002;51.196;7.010;2024-01-30T10:23:03;7.73;;;5.43;;
15799;SDS011;8002;51.196;7.010;2024-01-30T10:25:30;6.30;;;5.37;;
15799;SDS011;8002;51.196;7.010;2024-01-30T10:27:56;7.27;;;5.63;;
15799;SDS011;8002;51.196;7.010;2024-01-30T10:30:23;6.70;;;5.27;;
15799;SDS011;8002;51.196;7.010;2024-01-30T10:32:48;7.20;;;5.97;;
15799;SDS011;8002;51.196;7.010;2024-01-30T10:35:15;7.63;;;5.90;;
15799;SDS011;8002;51.196;7.010;2024-01-30T10:37:44;6.50;;;5.40;;
15799;SDS011;8002;51.196;7.010;2024-01-30T10:40:13;8.67;;;5.40;;
15799;SDS011;8002;51.196;7.010;2024-01-30T10:42:42;7.10;;;6.13;;
15799;SDS011;8002;51.196;7.010;2024-01-30T10:45:09;6.57;;;5.53;;
15799;SDS011;8002;51.196;7.010;2024-01-30T10:47:37;5.90;;;5.13;;
15799;SDS011;8002;51.196;7.010;2024-01-30T10:50:05;5.90;;;5.40;;
15799;SDS011;8002;51.196;7.010;2024-01-30T10:52:33;6.03;;;5.27;;
15799;SDS011;8002;51.196;7.010;2024-01-30T10:55:01;7.97;;;5.80;;
15799;SDS011;8002;51.196;7.010;2024-01-30T10:57:29;7.30;;;5.53;;
15799;SDS011;8002;51.196;7.010;2024-01-30T10:59:56;7.13;;;5.80;;
15799;SDS011;8002;51.196;7.010;2024-01-30T11:02:23;7.83;;;5.67;;
15799;SDS011;8002;51.196;7.010;2024-01-30T11:04:50;6.77;;;5.20;;
15799;SDS011;8002;51.196;7.010;2024-01-30T11:07:23;7.07;;;5.43;;
15799;SDS011;8002;51.196;7.010;2024-01-30T11:09:50;8.40;;;5.80;;
15799;SDS011;8002;51.196;7.010;2024-01-30T11:12:22;8.13;;;5.90;;
15799;SDS011;8002;51.196;7.010;2024-01-30T11:14:49;7.20;;;5.57;;
15799;SDS011;8002;51.196;7.010;2024-01-30T11:17:16;6.50;;;5.57;;
15799;SDS011;8002;51.196;7.010;2024-01-30T11:19:42;7.33;;;5.07;;
15799;SDS011;8002;51.196;7.010;2024-01-30T11:22:10;8.43;;;5.73;;
15799;SDS011;8002;51.196;7.010;2024-01-30T11:24:38;7.53;;;5.37;;
15799;SDS011;8002;51.196;7.010;2024-01-30T11:27:07;8.00;;;5.53;;
15799;SDS011;8002;51.196;7.010;2024-01-30T11:29:35;5.80;;;5.20;;
15799;SDS011;8002;51.196;7.010;2024-01-30T11:32:02;7.23;;;4.93;;
15799;SDS011;8002;51.196;7.010;2024-01-30T11:34:28;6.07;;;5.03;;
15799;SDS011;8002;51.196;7.010;2024-01-30T11:36:56;8.93;;;5.00;;
15799;SDS011;8002;51.196;7.010;2024-01-30T11:39:24;8.40;;;5.67;;
15799;SDS011;8002;51.196;7.010;2024-01-30T11:41:51;7.33;;;5.37;;
15799;SDS011;8002;51.196;7.010;2024-01-30T11:44:17;6.97;;;5.27;;
15799;SDS011;8002;51.196;7.010;2024-01-30T11:46:46;7.30;;;5.13;;
15799;SDS011;8002;51.196;7.010;2024-01-30T11:49:13;7.53;;;5.70;;
15799;SDS011;8002;51.196;7.010;2024-01-30T11:51:39;10.20;;;5.67;;
15799;SDS011;8002;51.196;7.010;2024-01-30T11:54:07;7.10;;;5.83;;
15799;SDS011;8002;51.196;7.010;2024-01-30T11:56:33;6.83;;;5.40;;
15799;SDS011;8002;51.196;7.010;2024-01-30T11:58:59;7.63;;;5.90;;
15799;SDS011;8002;51.196;7.010;2024-01-30T12:01:26;7.47;;;6.03;;
15799;SDS011;8002;51.196;7.010;2024-01-30T12:03:54;7.10;;;5.53;;
15799;SDS011;8002;51.196;7.010;2024-01-30T12:06:22;9.13;;;5.20;;
15799;SDS011;8002;51.196;7.010;2024-01-30T12:08:56;7.70;;;5.27;;
15799;SDS011;8002;51.196;7.010;2024-01-30T12:11:22;8.63;;;5.20;;
15799;SDS011;8002;51.196;7.010;2024-01-30T12:13:48;8.80;;;5.60;;
15799;SDS011;8002;51.196;7.010;2024-01-30T12:16:15;8.87;;;5.67;;
15799;SDS011;8002;51.196;7.010;2024-01-30T12:18:42;7.17;;;6.10;;
15799;SDS011;8002;51.196;7.010;2024-01-30T12:21:10;7.87;;;6.03;;
15799;SDS011;8002;51.196;7.010;2024-01-30T12:23:36;8.57;;;6.37;;
15799;SDS011;8002;51.196;7.010;2024-01-30T12:26:02;9.30;;;6.40;;
15799;SDS011;8002;51.196;7.010;2024-01-30T12:28:32;7.93;;;6.10;;
15799;SDS011;8002;51.196;7.010;2024-01-30T12:31:00;9.90;;;6.90;;
15799;SDS011;8002;51.196;7.010;2024-01-30T12:33:28;9.80;;;6.67;;
15799;SDS011;8002;51.196;7.010;2024-01-30T12:35:54;7.37;;;6.47;;
15799;SDS011;8002;51.196;7.010;2024-01-30T12:38:22;7.87;;;6.27;;
15799;SDS011;8002;51.196;7.010;2024-01-30T12:40:49;7.77;;;6.80;;
15799;SDS011;8002;51.196;7.010;2024-01-30T12:43:15;8.53;;;6.00;;
15799;SDS011;8002;51.196;7.010;2024-01-30T12:45:42;7.57;;;6.27;;
15799;SDS011;8002;51.196;7.010;2024-01-30T12:48:08;9.27;;;5.73;;
15799;SDS011;8002;51.196;7.010;2024-01-30T12:50:35;7.93;;;6.40;;
15799;SDS011;8002;51.196;7.010;2024-01-30T12:53:01;6.57;;;5.63;;
15799;SDS011;8002;51.196;7.010;2024-01-30T12:55:29;9.17;;;7.43;;
15799;SDS011;8002;51.196;7.010;2024-01-30T12:57:55;10.43;;;6.47;;
15799;SDS011;8002;51.196;7.010;2024-01-30T13:00:21;7.20;;;5.57;;
15799;SDS011;8002;51.196;7.010;2024-01-30T13:02:48;7.63;;;5.83;;
15799;SDS011;8002;51.196;7.010;2024-01-30T13:05:14;8.07;;;5.93;;
15799;SDS011;8002;51.196;7.010;2024-01-30T13:07:41;10.50;;;5.63;;
15799;SDS011;8002;51.196;7.010;2024-01-30T13:10:07;8.33;;;5.97;;
15799;SDS011;8002;51.196;7.010;2024-01-30T13:12:35;8.00;;;6.87;;
15799;SDS011;8002;51.196;7.010;2024-01-30T13:15:02;7.87;;;5.97;;
15799;SDS011;8002;51.196;7.010;2024-01-30T13:17:29;9.80;;;6.67;;
15799;SDS011;8002;51.196;7.010;2024-01-30T13:19:56;10.90;;;7.57;;
15799;SDS011;8002;51.196;7.010;2024-01-30T13:22:23;8.07;;;5.90;;
15799;SDS011;8002;51.196;7.010;2024-01-30T13:24:49;9.83;;;6.63;;
15799;SDS011;8002;51.196;7.010;2024-01-30T13:27:15;8.17;;;6.03;;
15799;SDS011;8002;51.196;7.010;2024-01-30T13:29:44;12.33;;;6.67;;
15799;SDS011;8002;51.196;7.010;2024-01-30T13:32:10;8.00;;;6.23;;
15799;SDS011;8002;51.196;7.010;2024-01-30T13:34:37;8.33;;;6.27;;
15799;SDS011;8002;51.196;7.010;2024-01-30T13:37:03;7.83;;;5.57;;
15799;SDS011;8002;51.196;7.010;2024-01-30T13:39:30;7.53;;;6.40;;
15799;SDS011;8002;51.196;7.010;2024-01-30T13:41:56;9.57;;;6.00;;
15799;SDS011;8002;51.196;7.010;2024-01-30T13:44:22;7.67;;;5.93;;
15799;SDS011;8002;51.196;7.010;2024-01-30T13:46:50;8.17;;;5.93;;
15799;SDS011;8002;51.196;7.010;2024-01-30T13:49:16;10.73;;;6.27;;
15799;SDS011;8002;51.196;7.010;2024-01-30T13:51:43;7.73;;;5.30;;
15799;SDS011;8002;51.196;7.010;2024-01-30T13:54:09;7.93;;;5.90;;
15799;SDS011;8002;51.196;7.010;2024-01-30T13:56:37;8.63;;;6.20;;
15799;SDS011;8002;51.196;7.010;2024-01-30T13:59:03;12.57;;;6.90;;
15799;SDS011;8002;51.196;7.010;2024-01-30T14:01:30;8.53;;;7.70;;
15799;SDS011;8002;51.196;7.010;2024-01-30T14:03:58;10.03;;;7.13;;
15799;SDS011;8002;51.196;7.010;2024-01-30T14:06:24;7.37;;;6.10;;
15799;SDS011;8002;51.196;7.010;2024-01-30T14:08:50;7.47;;;5.90;;
15799;SDS011;8002;51.196;7.010;2024-01-30T14:11:17;11.17;;;7.00;;
15799;SDS011;8002;51.196;7.010;2024-01-30T14:13:43;7.27;;;6.10;;
15799;SDS011;8002;51.196;7.010;2024-01-30T14:16:09;8.47;;;5.63;;
15799;SDS011;8002;51.196;7.010;2024-01-30T14:18:36;8.77;;;6.03;;
15799;SDS011;8002;51.196;7.010;2024-01-30T14:21:04;6.97;;;5.60;;
15799;SDS011;8002;51.196;7.010;2024-01-30T14:23:31;6.57;;;5.83;;
15799;SDS011;8002;51.196;7.010;2024-01-30T14:25:58;7.53;;;6.53;;
15799;SDS011;8002;51.196;7.010;2024-01-30T14:28:32;9.87;;;7.03;;
15799;SDS011;8002;51.196;7.010;2024-01-30T14:31:17;7.63;;;6.53;;
15799;SDS011;8002;51.196;7.010;2024-01-30T14:33:49;9.83;;;7.30;;
15799;SDS011;8002;51.196;7.010;2024-01-30T14:36:19;9.20;;;7.00;;
15799;SDS011;8002;51.196;7.010;2024-01-30T14:38:46;9.13;;;6.40;;
15799;SDS011;8002;51.196;7.010;2024-01-30T14:41:17;7.90;;;7.10;;
15799;SDS011;8002;51.196;7.010;2024-01-30T14:43:47;9.73;;;7.20;;
15799;SDS011;8002;51.196;7.010;2024-01-30T14:46:15;8.10;;;6.77;;
15799;SDS011;8002;51.196;7.010;2024-01-30T14:48:41;9.33;;;7.57;;
15799;SDS011;8002;51.196;7.010;2024-01-30T14:51:08;8.63;;;6.80;;
15799;SDS011;8002;51.196;7.010;2024-01-30T14:53:35;8.00;;;6.60;;
15799;SDS011;8002;51.196;7.010;2024-01-30T14:56:02;11.00;;;7.27;;
15799;SDS011;8002;51.196;7.010;2024-01-30T14:58:29;9.37;;;7.53;;
15799;SDS011;8002;51.196;7.010;2024-01-30T15:00:56;8.03;;;7.23;;
15799;SDS011;8002;51.196;7.010;2024-01-30T15:03:22;9.53;;;7.23;;
15799;SDS011;8002;51.196;7.010;2024-01-30T15:05:48;10.33;;;7.17;;
15799;SDS011;8002;51.196;7.010;2024-01-30T15:08:15;11.53;;;7.10;;